Time;durP1;ratioP1;P1;durP2;ratioP2;P2;SDS_P1;SDS_P2;PMS_P1;PMS_P2;Temp;Humidity;BMP_temperature;BMP_pressure;BME280_temperature;BME280_humidity;BME280_pressure;Samples;Min_cycle;Max_cycle;Signal;HPM_P1;HPM_P2
2022/09/10 00:01:22;;;;;;;0.67;0.60;;;20.00;99.90;;;;;;5032694;28;20488;-79
2022/09/10 00:03:52;;;;;;;0.50;0.43;;;20.10;99.90;;;;;;5032993;28;20459;-79
2022/09/10 00:06:24;;;;;;;0.83;0.53;;;20.20;99.90;;;;;;5030448;28;20465;-79
2022/09/10 00:08:55;;;;;;;0.87;0.40;;;20.20;99.90;;;;;;5027089;28;20468;-79
2022/09/10 00:11:23;;;;;;;0.60;0.50;;;20.20;99.90;;;;;;5028352;28;20498;-79
2022/09/10 00:13:54;;;;;;;0.53;0.47;;;20.10;99.90;;;;;;5029928;28;20479;-79
2022/09/10 00:16:22;;;;;;;0.50;0.50;;;20.00;99.90;;;;;;5029654;28;20531;-79
2022/09/10 00:18:50;;;;;;;0.77;0.53;;;19.90;99.90;;;;;;5032323;28;20451;-79
2022/09/10 00:21:20;;;;;;;0.50;0.43;;;19.80;99.90;;;;;;5030883;28;20642;-79
2022/09/10 00:23:49;;;;;;;0.47;0.40;;;19.80;99.90;;;;;;5027542;28;20476;-79
2022/09/10 00:26:20;;;;;;;2.40;0.50;;;19.80;99.90;;;;;;5031717;28;20554;-79
2022/09/10 00:28:50;;;;;;;1.63;0.60;;;19.70;99.90;;;;;;5027779;28;20471;-79
2022/09/10 00:31:20;;;;;;;0.50;0.50;;;19.60;99.90;;;;;;5024038;28;20496;-78
2022/09/10 00:33:49;;;;;;;0.60;0.57;;;19.60;99.90;;;;;;5029524;28;20521;-78
2022/09/10 00:36:20;;;;;;;1.20;0.57;;;19.60;99.90;;;;;;5025756;28;20453;-79
2022/09/10 00:38:49;;;;;;;0.70;0.50;;;19.70;99.90;;;;;;5025549;28;20460;-79
2022/09/10 00:41:18;;;;;;;0.50;0.40;;;19.90;99.90;;;;;;5030632;28;20471;-79
2022/09/10 00:43:49;;;;;;;1.40;0.50;;;19.90;99.90;;;;;;5027393;28;20480;-79
2022/09/10 00:46:26;;;;;;;0.83;0.50;;;20.00;99.90;;;;;;5032585;28;20534;-79
2022/09/10 00:48:56;;;;;;;2.10;0.40;;;20.00;99.90;;;;;;5023744;28;20507;-78
2022/09/10 00:51:26;;;;;;;0.70;0.50;;;20.20;99.90;;;;;;5025607;28;21263;-78
2022/09/10 00:53:54;;;;;;;0.50;0.50;;;20.20;99.90;;;;;;5045040;28;20875;-78
2022/09/10 00:56:22;;;;;;;1.27;0.50;;;20.80;99.90;;;;;;5028664;28;20538;-78
2022/09/10 00:58:51;;;;;;;0.77;0.50;;;20.40;99.90;;;;;;5033279;28;20554;-78
2022/09/10 01:01:21;;;;;;;0.60;0.57;;;20.20;99.90;;;;;;5029679;28;20479;-78
2022/09/10 01:03:50;;;;;;;0.60;0.50;;;20.10;99.90;;;;;;5030065;28;20510;-79
2022/09/10 01:06:19;;;;;;;0.67;0.50;;;20.30;99.90;;;;;;5026736;28;20460;-78
2022/09/10 01:08:47;;;;;;;0.60;0.50;;;20.30;99.90;;;;;;5028709;28;20502;-78
2022/09/10 01:11:46;;;;;;;0.50;0.50;;;20.30;99.90;;;;;;5029833;28;20480;-79
2022/09/10 01:14:30;;;;;;;0.60;0.50;;;20.40;99.90;;;;;;5015300;28;20553;-79
2022/09/10 01:17:10;;;;;;;0.77;0.77;;;20.30;99.90;;;;;;5032299;28;20980;-79
2022/09/10 01:20:07;;;;;;;0.63;0.63;;;20.30;99.90;;;;;;5028604;28;20468;-78
2022/09/10 01:22:49;;;;;;;0.40;0.40;;;20.30;99.90;;;;;;5030236;28;21171;-79
2022/09/10 01:25:27;;;;;;;0.80;0.60;;;20.30;99.90;;;;;;5029788;28;20483;-79
2022/09/10 01:28:01;;;;;;;0.70;0.53;;;20.30;99.90;;;;;;5028013;28;20567;-79
2022/09/10 01:30:34;;;;;;;0.60;0.60;;;20.20;99.90;;;;;;5027216;28;20460;-79
2022/09/10 01:33:14;;;;;;;0.47;0.47;;;20.10;99.90;;;;;;5030469;28;20476;-79
2022/09/10 01:35:45;;;;;;;0.40;0.40;;;20.10;99.90;;;;;;5030996;28;20488;-79
2022/09/10 01:38:16;;;;;;;0.50;0.50;;;20.00;99.90;;;;;;5026709;28;20503;-78
2022/09/10 01:40:45;;;;;;;1.03;0.50;;;19.90;99.90;;;;;;5024627;28;20515;-79
2022/09/10 01:43:14;;;;;;;1.90;0.50;;;20.00;99.90;;;;;;5031646;28;20515;-78
2022/09/10 01:45:53;;;;;;;1.43;0.50;;;19.90;99.90;;;;;;5032475;28;20456;-79
2022/09/10 01:48:54;;;;;;;1.37;0.67;;;19.90;99.90;;;;;;5025768;28;20455;-78
2022/09/10 01:51:28;;;;;;;0.57;0.57;;;20.00;99.90;;;;;;5023845;28;20495;-79
2022/09/10 01:54:16;;;;;;;0.97;0.50;;;20.00;99.90;;;;;;5024735;28;20554;-79
2022/09/10 01:56:53;;;;;;;0.73;0.50;;;20.00;99.90;;;;;;5028648;28;20552;-79
2022/09/10 01:59:33;;;;;;;0.60;0.50;;;20.00;99.90;;;;;;5028160;28;20546;-78
2022/09/10 02:02:10;;;;;;;2.10;0.60;;;19.80;99.90;;;;;;5027611;28;21029;-80
2022/09/10 02:04:38;;;;;;;0.80;0.50;;;19.80;99.90;;;;;;5028513;28;20462;-79
2022/09/10 02:07:07;;;;;;;1.17;0.50;;;19.80;99.90;;;;;;5027119;28;20551;-77
2022/09/10 02:09:36;;;;;;;1.40;0.50;;;19.80;99.90;;;;;;5045458;28;20458;-78
2022/09/10 02:12:05;;;;;;;1.73;0.57;;;19.80;99.90;;;;;;5029033;28;20472;-77
2022/09/10 02:14:34;;;;;;;0.60;0.60;;;19.80;99.90;;;;;;5025401;28;20484;-78
2022/09/10 02:17:03;;;;;;;2.50;0.70;;;19.90;99.90;;;;;;5025279;28;20477;-78
2022/09/10 02:19:31;;;;;;;2.20;0.60;;;19.80;99.90;;;;;;5027613;28;20451;-78
2022/09/10 02:21:59;;;;;;;1.33;0.70;;;19.90;99.90;;;;;;5026739;28;21076;-78
2022/09/10 02:24:27;;;;;;;0.60;0.53;;;19.90;99.90;;;;;;5026329;28;20463;-78
2022/09/10 02:26:56;;;;;;;1.07;0.50;;;19.90;99.90;;;;;;5028785;28;20979;-78
2022/09/10 02:29:24;;;;;;;0.90;0.77;;;19.70;99.90;;;;;;5026624;28;20546;-78
2022/09/10 02:31:53;;;;;;;0.67;0.53;;;19.80;99.90;;;;;;5025565;28;20488;-78
2022/09/10 02:34:21;;;;;;;0.90;0.60;;;19.70;99.90;;;;;;5026450;28;20476;-78
2022/09/10 02:36:50;;;;;;;0.50;0.50;;;19.40;99.90;;;;;;5029954;28;20559;-78
2022/09/10 02:39:18;;;;;;;0.90;0.70;;;19.30;99.90;;;;;;5027904;28;20543;-78
2022/09/10 02:41:46;;;;;;;0.53;0.53;;;19.40;99.90;;;;;;5026896;28;20719;-78
2022/09/10 02:44:15;;;;;;;0.70;0.63;;;19.20;99.90;;;;;;5025608;28;20452;-78
2022/09/10 02:46:43;;;;;;;0.73;0.50;;;19.10;99.90;;;;;;5029460;28;20537;-78
2022/09/10 02:49:13;;;;;;;0.70;0.70;;;19.20;99.90;;;;;;5025078;28;20456;-78
2022/09/10 02:51:42;;;;;;;0.70;0.70;;;19.20;99.90;;;;;;5020058;28;20475;-78
2022/09/10 02:54:10;;;;;;;0.57;0.57;;;19.00;99.90;;;;;;5028111;28;20514;-78
2022/09/10 02:56:38;;;;;;;2.00;0.60;;;18.80;99.90;;;;;;5027664;28;20469;-78
2022/09/10 02:59:06;;;;;;;2.23;0.60;;;18.80;99.90;;;;;;5026414;28;20863;-78
2022/09/10 03:01:35;;;;;;;2.73;0.60;;;18.90;99.90;;;;;;5028301;28;20664;-78
2022/09/10 03:04:03;;;;;;;0.70;0.50;;;18.90;99.90;;;;;;5025962;28;20547;-78
2022/09/10 03:06:33;;;;;;;1.10;0.70;;;19.00;99.90;;;;;;5032828;28;20455;-78
2022/09/10 03:09:01;;;;;;;3.00;0.63;;;19.10;99.90;;;;;;5021627;28;20503;-78
2022/09/10 03:11:30;;;;;;;1.47;0.60;;;19.10;99.90;;;;;;5028662;28;20471;-78
2022/09/10 03:13:58;;;;;;;0.50;0.50;;;19.00;99.90;;;;;;5028218;28;20468;-78
2022/09/10 03:16:26;;;;;;;0.70;0.60;;;19.10;99.90;;;;;;5026628;28;20457;-79
2022/09/10 03:18:54;;;;;;;0.60;0.60;;;19.20;99.90;;;;;;5025959;28;20562;-78
2022/09/10 03:21:24;;;;;;;0.90;0.70;;;19.20;99.90;;;;;;5026136;28;21104;-78
2022/09/10 03:23:55;;;;;;;2.60;0.60;;;19.20;99.90;;;;;;5026864;28;20448;-78
2022/09/10 03:26:25;;;;;;;0.60;0.60;;;19.20;99.90;;;;;;5024012;28;20999;-78
2022/09/10 03:28:53;;;;;;;1.90;0.53;;;19.30;99.90;;;;;;5027373;28;20453;-78
2022/09/10 03:31:21;;;;;;;2.60;1.17;;;19.20;99.90;;;;;;5024130;28;20472;-78
2022/09/10 03:33:49;;;;;;;0.90;0.50;;;19.00;99.90;;;;;;5024804;28;20557;-79
2022/09/10 03:36:19;;;;;;;0.63;0.57;;;19.00;99.90;;;;;;5030332;28;20444;-78
2022/09/10 03:38:47;;;;;;;0.90;0.50;;;18.90;99.90;;;;;;5026163;28;20488;-78
2022/09/10 03:41:17;;;;;;;1.40;0.70;;;19.00;99.90;;;;;;5027410;28;20550;-78
2022/09/10 03:43:46;;;;;;;0.70;0.70;;;18.90;99.90;;;;;;5026548;28;20486;-78
2022/09/10 03:46:14;;;;;;;0.60;0.50;;;18.90;99.90;;;;;;5026010;28;20483;-78
2022/09/10 03:48:43;;;;;;;2.63;0.50;;;18.70;99.90;;;;;;5028288;28;20488;-78
2022/09/10 03:51:11;;;;;;;0.50;0.50;;;18.60;1.00;;;;;;5025063;28;20479;-78
2022/09/10 03:53:39;;;;;;;0.63;0.63;;;18.70;1.00;;;;;;5022259;28;21057;-78
2022/09/10 03:56:08;;;;;;;0.90;0.60;;;18.80;99.90;;;;;;5023942;28;20464;-78
2022/09/10 03:58:38;;;;;;;0.80;0.70;;;18.80;99.90;;;;;;5024378;28;20539;-78
2022/09/10 04:01:06;;;;;;;0.60;0.60;;;18.70;99.90;;;;;;5024294;28;20464;-79
2022/09/10 04:03:35;;;;;;;0.93;0.70;;;18.70;1.00;;;;;;5032936;28;20452;-78
2022/09/10 04:06:03;;;;;;;0.63;0.60;;;18.70;1.00;;;;;;5030096;28;20491;-79
2022/09/10 04:08:31;;;;;;;1.47;0.63;;;18.60;1.00;;;;;;5031352;28;20987;-78
2022/09/10 04:11:02;;;;;;;1.10;0.50;;;18.60;1.00;;;;;;5025720;28;20476;-78
2022/09/10 04:13:30;;;;;;;0.60;0.60;;;18.60;1.00;;;;;;5026857;28;20518;-79
2022/09/10 04:16:00;;;;;;;0.50;0.50;;;18.60;99.90;;;;;;5027941;28;21106;-79
2022/09/10 04:18:30;;;;;;;1.33;0.60;;;18.60;1.00;;;;;;5027023;28;20467;-78
2022/09/10 04:20:59;;;;;;;0.77;0.60;;;18.50;1.00;;;;;;5025150;28;20542;-78
2022/09/10 04:23:28;;;;;;;0.73;0.70;;;18.50;1.00;;;;;;5027413;28;20491;-79
2022/09/10 04:25:57;;;;;;;0.53;0.50;;;18.60;99.90;;;;;;5026249;28;20471;-79
2022/09/10 04:28:25;;;;;;;1.07;0.60;;;18.50;1.00;;;;;;5032630;28;20858;-79
2022/09/10 04:30:53;;;;;;;0.70;0.70;;;18.50;1.00;;;;;;5024922;28;20872;-77
2022/09/10 04:33:23;;;;;;;1.50;0.60;;;18.40;1.00;;;;;;5026787;28;20460;-79
2022/09/10 04:35:51;;;;;;;1.00;0.60;;;18.50;1.00;;;;;;5030199;28;20540;-79
2022/09/10 04:38:19;;;;;;;0.80;0.50;;;18.20;1.00;;;;;;5024924;28;20456;-79
2022/09/10 04:40:48;;;;;;;0.80;0.57;;;18.10;1.00;;;;;;5025656;28;20462;-78
2022/09/10 04:43:16;;;;;;;0.90;0.87;;;18.00;1.00;;;;;;5023666;28;20460;-79
2022/09/10 04:45:44;;;;;;;0.70;0.63;;;18.30;1.00;;;;;;5029075;28;20455;-78
2022/09/10 04:48:12;;;;;;;2.10;0.60;;;18.10;1.00;;;;;;5031358;28;20524;-78
2022/09/10 04:50:43;;;;;;;1.47;0.50;;;18.10;1.00;;;;;;5031213;28;20444;-79
2022/09/10 04:53:33;;;;;;;1.10;0.50;;;18.20;1.00;;;;;;5030444;28;20538;-79
2022/09/10 04:56:01;;;;;;;0.70;0.60;;;18.30;1.00;;;;;;5028857;28;20479;-77
2022/09/10 04:58:30;;;;;;;1.37;0.57;;;18.30;1.00;;;;;;5032104;28;20830;-78
2022/09/10 05:01:04;;;;;;;0.60;0.60;;;18.30;1.00;;;;;;5028631;28;20578;-79
2022/09/10 05:03:33;;;;;;;1.07;0.50;;;18.30;1.00;;;;;;5028702;28;20462;-78
2022/09/10 05:06:03;;;;;;;0.50;0.50;;;18.40;1.00;;;;;;5029574;28;20448;-79
2022/09/10 05:08:32;;;;;;;2.20;0.70;;;18.50;1.00;;;;;;5029096;28;20471;-79
2022/09/10 05:11:01;;;;;;;0.60;0.60;;;18.50;1.00;;;;;;5024849;28;21660;-79
2022/09/10 05:13:30;;;;;;;0.57;0.50;;;18.60;1.00;;;;;;5030204;28;20978;-78
2022/09/10 05:15:58;;;;;;;1.67;1.07;;;18.60;1.00;;;;;;5028755;28;20998;-78
2022/09/10 05:18:27;;;;;;;0.50;0.50;;;18.60;1.00;;;;;;5030105;28;20465;-79
2022/09/10 05:20:55;;;;;;;0.63;0.40;;;18.50;1.00;;;;;;5028884;28;20474;-77
2022/09/10 05:23:25;;;;;;;0.50;0.50;;;18.60;1.00;;;;;;5027336;28;20963;-78
2022/09/10 05:25:53;;;;;;;0.70;0.60;;;18.60;1.00;;;;;;5032193;28;20455;-78
2022/09/10 05:28:21;;;;;;;0.77;0.57;;;18.70;1.00;;;;;;5027612;28;20510;-78
2022/09/10 05:30:49;;;;;;;0.50;0.50;;;18.80;1.00;;;;;;5028580;28;20475;-79
2022/09/10 05:33:19;;;;;;;0.60;0.60;;;18.90;99.90;;;;;;5032587;28;20459;-77
2022/09/10 05:35:50;;;;;;;1.90;0.60;;;18.80;99.90;;;;;;5027259;28;21086;-78
2022/09/10 05:38:19;;;;;;;2.50;0.70;;;18.70;1.00;;;;;;5029480;28;20511;-79
2022/09/10 05:40:49;;;;;;;1.07;0.50;;;18.70;1.00;;;;;;5027684;28;20492;-79
2022/09/10 05:43:17;;;;;;;0.50;0.50;;;18.80;99.90;;;;;;5032075;28;20464;-79
2022/09/10 05:45:45;;;;;;;0.50;0.50;;;18.50;1.00;;;;;;5025306;28;20543;-79
2022/09/10 05:48:14;;;;;;;1.60;0.60;;;18.50;1.00;;;;;;5030710;28;20772;-79
2022/09/10 05:50:44;;;;;;;1.37;0.50;;;18.60;1.00;;;;;;5030340;28;20800;-79
2022/09/10 05:53:13;;;;;;;0.70;0.60;;;18.70;1.00;;;;;;5029046;28;20543;-79
2022/09/10 05:55:42;;;;;;;0.50;0.50;;;18.70;1.00;;;;;;5023999;28;20515;-79
2022/09/10 05:58:12;;;;;;;0.50;0.50;;;18.60;1.00;;;;;;5024254;28;20472;-79
2022/09/10 06:00:42;;;;;;;1.80;1.03;;;18.60;1.00;;;;;;5028793;28;20541;-79
2022/09/10 06:03:10;;;;;;;0.60;0.60;;;18.50;1.00;;;;;;5033578;28;20446;-78
2022/09/10 06:05:38;;;;;;;1.07;0.60;;;18.40;1.00;;;;;;5029122;28;20494;-79
2022/09/10 06:08:07;;;;;;;1.10;0.50;;;18.40;1.00;;;;;;5025813;28;20460;-78
2022/09/10 06:10:36;;;;;;;0.57;0.57;;;18.40;1.00;;;;;;5028606;28;20460;-79
2022/09/10 06:13:04;;;;;;;0.50;0.50;;;18.50;1.00;;;;;;5026423;28;20474;-80
2022/09/10 06:15:34;;;;;;;1.30;0.60;;;18.60;1.00;;;;;;5023786;28;20578;-79
2022/09/10 06:18:02;;;;;;;0.80;0.60;;;18.30;1.00;;;;;;5024555;28;20943;-79
2022/09/10 06:20:31;;;;;;;1.47;0.70;;;18.10;1.00;;;;;;5029202;28;20888;-83
2022/09/10 06:22:59;;;;;;;0.70;0.70;;;18.00;1.00;;;;;;5029899;28;20476;-81
2022/09/10 06:25:27;;;;;;;1.10;0.50;;;17.90;1.00;;;;;;5034336;28;20454;-78
2022/09/10 06:27:55;;;;;;;2.07;0.70;;;17.90;19.50;;;;;;5025601;28;20455;-78
2022/09/10 06:30:23;;;;;;;0.63;0.63;;;17.90;42.60;;;;;;5029858;28;20803;-77
2022/09/10 06:32:53;;;;;;;0.87;0.70;;;18.00;1.00;;;;;;5027306;28;20856;-78
2022/09/10 06:35:21;;;;;;;1.00;0.57;;;18.10;1.00;;;;;;5026922;28;20555;-77
2022/09/10 06:37:49;;;;;;;0.70;0.67;;;18.10;1.00;;;;;;5023069;28;20503;-79
2022/09/10 06:40:18;;;;;;;0.70;0.50;;;18.30;1.00;;;;;;5024251;28;20467;-78
2022/09/10 06:42:47;;;;;;;0.70;0.50;;;18.60;1.00;;;;;;5026405;28;20483;-78
2022/09/10 06:45:15;;;;;;;0.80;0.80;;;18.70;1.00;;;;;;5027251;28;20449;-78
2022/09/10 06:47:43;;;;;;;0.50;0.50;;;18.80;1.00;;;;;;5024735;28;20457;-78
2022/09/10 06:50:34;;;;;;;0.50;0.50;;;19.00;99.90;;;;;;5025224;28;21114;-78
2022/09/10 06:53:02;;;;;;;0.80;0.57;;;18.80;1.00;;;;;;5025016;28;20514;-78
2022/09/10 06:55:30;;;;;;;0.80;0.67;;;18.70;1.00;;;;;;5022596;28;20543;-78
2022/09/10 06:57:59;;;;;;;1.00;0.60;;;18.70;1.00;;;;;;5024718;28;20898;-78
2022/09/10 07:00:30;;;;;;;0.67;0.50;;;18.90;1.00;;;;;;5017473;28;20875;-76
2022/09/10 07:02:59;;;;;;;2.27;0.70;;;19.10;1.00;;;;;;5023626;28;20500;-78
2022/09/10 07:05:28;;;;;;;0.80;0.50;;;19.10;99.90;;;;;;5025331;28;20648;-78
2022/09/10 07:07:57;;;;;;;0.57;0.50;;;19.20;1.00;;;;;;5029080;28;20472;-80
2022/09/10 07:10:26;;;;;;;0.67;0.67;;;19.10;1.00;;;;;;5018253;28;20448;-78
2022/09/10 07:12:54;;;;;;;1.27;0.60;;;19.10;99.90;;;;;;5014495;28;20895;-77
2022/09/10 07:15:22;;;;;;;0.60;0.60;;;19.20;1.00;;;;;;5019783;28;20477;-77
2022/09/10 07:17:50;;;;;;;1.20;0.60;;;19.30;99.90;;;;;;5024594;28;20891;-78
2022/09/10 07:20:18;;;;;;;1.50;0.60;;;19.30;99.90;;;;;;5027854;28;20955;-77
2022/09/10 07:22:46;;;;;;;0.47;0.47;;;19.30;99.90;;;;;;5023318;28;20578;-77
2022/09/10 07:25:16;;;;;;;0.70;0.50;;;19.20;99.90;;;;;;5022898;28;20514;-78
2022/09/10 07:27:44;;;;;;;1.20;0.40;;;19.20;99.90;;;;;;5024974;28;21002;-77
2022/09/10 07:30:13;;;;;;;0.53;0.53;;;19.20;99.90;;;;;;5022408;28;20539;-78
2022/09/10 07:32:42;;;;;;;0.60;0.60;;;19.20;99.90;;;;;;5024433;28;20518;-78
2022/09/10 07:35:10;;;;;;;0.77;0.70;;;18.70;1.00;;;;;;5024747;28;21022;-77
2022/09/10 07:37:38;;;;;;;1.00;0.50;;;18.80;1.00;;;;;;5028881;28;20490;-78
2022/09/10 07:40:07;;;;;;;0.60;0.60;;;19.00;1.00;;;;;;5025706;28;20463;-78
2022/09/10 07:42:37;;;;;;;0.73;0.53;;;19.20;99.90;;;;;;5025846;28;20575;-78
2022/09/10 07:45:06;;;;;;;1.43;0.50;;;19.30;99.90;;;;;;5024867;28;20554;-81
2022/09/10 07:47:34;;;;;;;1.23;0.50;;;19.40;99.90;;;;;;5027549;28;20449;-78
2022/09/10 07:50:02;;;;;;;0.60;0.60;;;19.60;99.90;;;;;;5023492;28;20518;-77
2022/09/10 07:52:30;;;;;;;0.90;0.70;;;19.80;99.90;;;;;;5021837;28;20541;-77
2022/09/10 07:54:59;;;;;;;0.67;0.50;;;20.00;99.90;;;;;;5026843;28;20560;-75
2022/09/10 07:57:30;;;;;;;0.50;0.50;;;20.10;99.90;;;;;;5022480;28;21497;-76
2022/09/10 08:00:00;;;;;;;1.37;0.70;;;20.20;99.90;;;;;;5027555;28;20464;-74
2022/09/10 08:02:28;;;;;;;0.50;0.50;;;20.40;99.90;;;;;;5023758;28;21021;-77
2022/09/10 08:04:56;;;;;;;1.27;0.50;;;20.40;99.90;;;;;;5022612;28;20456;-76
2022/09/10 08:07:24;;;;;;;1.03;0.50;;;20.60;99.90;;;;;;5018610;28;20471;-76
2022/09/10 08:09:52;;;;;;;0.47;0.40;;;20.70;99.90;;;;;;5018497;28;20550;-76
2022/09/10 08:12:20;;;;;;;0.77;0.47;;;20.90;99.90;;;;;;5022896;28;20483;-76
2022/09/10 08:14:49;;;;;;;0.87;0.40;;;20.80;99.90;;;;;;5024893;28;20464;-76
2022/09/10 08:17:19;;;;;;;0.40;0.40;;;20.90;99.90;;;;;;5025695;28;20465;-77
2022/09/10 08:19:49;;;;;;;1.07;0.60;;;20.80;99.90;;;;;;5025948;28;20460;-81
2022/09/10 08:22:19;;;;;;;1.07;0.83;;;20.80;99.90;;;;;;5030493;28;20979;-75
2022/09/10 08:24:47;;;;;;;0.50;0.50;;;21.00;99.90;;;;;;5030229;28;20457;-76
2022/09/10 08:27:15;;;;;;;0.50;0.50;;;21.10;99.90;;;;;;5031924;28;20531;-77
2022/09/10 08:29:44;;;;;;;1.93;0.57;;;21.50;99.90;;;;;;5028673;28;20444;-76
2022/09/10 08:32:12;;;;;;;0.60;0.60;;;21.20;99.90;;;;;;5029235;28;20474;-78
2022/09/10 08:34:42;;;;;;;1.27;0.60;;;21.30;99.90;;;;;;5026868;28;20499;-75
2022/09/10 08:37:11;;;;;;;1.17;0.50;;;21.20;99.90;;;;;;5029025;28;20477;-78
2022/09/10 08:39:39;;;;;;;0.83;0.50;;;21.20;99.90;;;;;;5031405;28;21082;-78
2022/09/10 08:42:16;;;;;;;1.33;0.60;;;21.30;99.90;;;;;;5023420;28;20518;-77
2022/09/10 08:44:48;;;;;;;0.90;0.70;;;21.20;99.90;;;;;;5026565;28;20500;-76
2022/09/10 08:47:25;;;;;;;1.23;1.13;;;21.20;99.90;;;;;;5030624;28;20518;-77
2022/09/10 08:49:57;;;;;;;0.70;0.60;;;21.10;99.90;;;;;;5026067;28;20455;-79
2022/09/10 08:52:32;;;;;;;0.97;0.73;;;21.20;99.90;;;;;;5029699;28;20514;-76
2022/09/10 08:55:11;;;;;;;1.33;0.60;;;21.10;99.90;;;;;;5023327;28;20456;-77
2022/09/10 08:57:45;;;;;;;1.10;0.70;;;21.10;99.90;;;;;;5034397;28;21086;-76
2022/09/10 09:00:18;;;;;;;0.60;0.60;;;21.30;99.90;;;;;;5020396;28;20460;-76
2022/09/10 09:02:56;;;;;;;1.43;0.70;;;21.20;99.90;;;;;;5026920;28;20491;-77
2022/09/10 09:05:27;;;;;;;1.03;0.60;;;21.00;99.90;;;;;;5027887;28;20444;-77
2022/09/10 09:07:58;;;;;;;1.30;0.53;;;21.00;99.90;;;;;;5022908;28;20453;-76
2022/09/10 09:10:46;;;;;;;1.25;0.65;;;21.10;99.90;;;;;;5029810;28;21043;-78
2022/09/10 09:13:49;;;;;;;0.73;0.70;;;21.10;99.90;;;;;;5024204;28;20234;-76
2022/09/10 09:16:34;;;;;;;1.30;0.77;;;21.10;99.90;;;;;;5020991;28;20449;-76
2022/09/10 09:19:14;;;;;;;1.30;0.70;;;21.00;99.90;;;;;;5025658;28;20202;-76
2022/09/10 09:21:51;;;;;;;2.07;0.70;;;21.10;99.90;;;;;;5024778;28;20822;-76
2022/09/10 09:24:23;;;;;;;1.23;0.70;;;21.10;99.90;;;;;;5026079;28;20452;-75
2022/09/10 09:26:56;;;;;;;1.27;0.70;;;21.00;99.90;;;;;;5028249;28;20535;-77
2022/09/10 09:29:29;;;;;;;1.10;0.77;;;20.90;99.90;;;;;;5023241;28;20468;-77
2022/09/10 09:31:59;;;;;;;1.40;0.63;;;21.00;99.90;;;;;;5022723;28;20514;-77
2022/09/10 09:34:33;;;;;;;1.58;0.70;;;21.10;99.90;;;;;;5023977;28;20494;-76
2022/09/10 09:37:11;;;;;;;0.97;0.60;;;21.10;99.90;;;;;;5038384;28;20283;-78
2022/09/10 09:39:48;;;;;;;1.13;0.60;;;21.10;99.90;;;;;;5025887;28;20478;-76
2022/09/10 09:42:28;;;;;;;1.63;0.90;;;21.10;99.90;;;;;;5028990;28;20475;-79
2022/09/10 09:45:02;;;;;;;2.40;0.63;;;21.00;99.90;;;;;;5028423;28;20456;-76
2022/09/10 09:47:31;;;;;;;0.77;0.60;;;20.90;99.90;;;;;;5024722;28;20462;-76
2022/09/10 09:49:59;;;;;;;0.80;0.70;;;20.90;99.90;;;;;;5025019;28;20471;-76
2022/09/10 09:52:31;;;;;;;0.83;0.40;;;21.00;99.90;;;;;;5027904;28;20476;-76
2022/09/10 09:55:05;;;;;;;2.00;0.50;;;20.90;99.90;;;;;;5021393;28;20495;-76
2022/09/10 09:57:43;;;;;;;1.57;0.80;;;20.70;99.90;;;;;;5025794;28;20477;-76
2022/09/10 10:00:35;;;;;;;2.10;0.70;;;20.70;99.90;;;;;;5020597;28;20978;-76
2022/09/10 10:03:12;;;;;;;0.80;0.60;;;20.70;99.90;;;;;;5026380;28;20820;-76
2022/09/10 10:05:41;;;;;;;2.00;0.60;;;20.70;99.90;;;;;;5024334;28;20467;-76
2022/09/10 10:08:29;;;;;;;2.30;0.60;;;20.80;99.90;;;;;;5026207;28;20453;-76
2022/09/10 10:10:58;;;;;;;2.13;0.70;;;20.90;99.90;;;;;;5024681;28;20842;-75
2022/09/10 10:13:37;;;;;;;1.27;0.80;;;21.00;99.90;;;;;;5028513;28;20473;-76
2022/09/10 10:16:17;;;;;;;0.60;0.60;;;21.10;99.90;;;;;;5026353;28;20998;-76
2022/09/10 10:18:45;;;;;;;1.50;0.80;;;21.20;99.90;;;;;;5021328;28;20480;-76
2022/09/10 10:21:18;;;;;;;0.60;0.60;;;21.20;99.90;;;;;;5024223;28;20575;-76
2022/09/10 10:23:49;;;;;;;0.50;0.50;;;21.10;99.90;;;;;;5017358;28;20515;-77
2022/09/10 10:26:27;;;;;;;1.10;0.50;;;21.10;99.90;;;;;;5018426;28;20452;-78
2022/09/10 10:28:59;;;;;;;0.80;0.60;;;21.10;99.90;;;;;;5030130;28;20547;-77
2022/09/10 10:31:40;;;;;;;1.40;0.70;;;21.10;99.90;;;;;;5027586;28;20520;-77
2022/09/10 10:34:38;;;;;;;0.57;0.57;;;21.20;99.90;;;;;;5030650;28;20544;-77
2022/09/10 10:37:13;;;;;;;1.37;0.50;;;21.30;99.90;;;;;;5033442;28;20487;-77
2022/09/10 10:39:59;;;;;;;1.27;0.50;;;21.30;99.90;;;;;;5020438;28;20445;-76
2022/09/10 10:42:34;;;;;;;0.67;0.60;;;21.50;99.90;;;;;;5023928;28;20229;-77
2022/09/10 10:45:30;;;;;;;0.53;0.50;;;21.70;99.90;;;;;;5023400;28;20466;-77
2022/09/10 10:48:04;;;;;;;1.33;0.70;;;21.80;99.90;;;;;;5026367;28;20555;-80
2022/09/10 10:50:42;;;;;;;4.23;1.20;;;21.80;99.90;;;;;;5020613;28;20980;-81
2022/09/10 10:53:35;;;;;;;1.00;0.60;;;21.70;99.90;;;;;;5028465;28;20560;-80
2022/09/10 10:56:12;;;;;;;0.90;0.70;;;21.40;99.90;;;;;;5025232;28;20510;-79
2022/09/10 10:59:04;;;;;;;1.30;0.60;;;21.70;99.90;;;;;;5028365;28;20631;-80
2022/09/10 11:01:37;;;;;;;2.17;0.70;;;21.90;99.90;;;;;;5028255;28;20517;-80
2022/09/10 11:04:21;;;;;;;1.13;0.50;;;22.00;99.90;;;;;;5036543;28;20454;-80
2022/09/10 11:06:56;;;;;;;2.70;0.60;;;22.00;99.90;;;;;;5034680;28;20461;-79
2022/09/10 11:09:30;;;;;;;1.07;0.60;;;21.90;99.90;;;;;;5031148;28;20537;-78
2022/09/10 11:12:05;;;;;;;0.53;0.53;;;22.00;99.90;;;;;;5030891;28;20476;-75
2022/09/10 11:14:39;;;;;;;2.10;0.70;;;22.10;99.90;;;;;;5026766;28;20555;-77
2022/09/10 11:17:14;;;;;;;1.30;0.60;;;22.00;99.90;;;;;;5023314;28;20591;-76
2022/09/10 11:19:48;;;;;;;1.37;0.70;;;22.20;99.90;;;;;;5021594;28;20485;-77
2022/09/10 11:22:42;;;;;;;1.43;0.60;;;22.30;99.90;;;;;;5021889;28;20466;-79
2022/09/10 11:25:19;;;;;;;3.47;0.70;;;22.30;99.90;;;;;;5026941;28;20447;-73
2022/09/10 11:27:54;;;;;;;1.10;0.60;;;22.30;99.90;;;;;;5026495;28;21002;-72
2022/09/10 11:30:22;;;;;;;1.20;0.80;;;22.50;99.90;;;;;;5023765;28;20550;-82
2022/09/10 11:32:57;;;;;;;4.63;0.80;;;22.90;99.90;;;;;;5027134;28;20482;-82
2022/09/10 11:35:30;;;;;;;2.90;1.33;;;22.80;99.90;;;;;;5026907;28;20509;-81
2022/09/10 11:38:11;;;;;;;1.27;0.77;;;22.70;99.90;;;;;;5027102;28;20816;-83
2022/09/10 11:40:51;;;;;;;2.47;0.83;;;23.00;99.90;;;;;;5028385;28;20959;-81
2022/09/10 11:43:31;;;;;;;5.17;0.70;;;22.80;99.90;;;;;;5024006;28;20541;-80
2022/09/10 11:46:04;;;;;;;1.17;0.80;;;23.00;99.90;;;;;;5044719;28;21025;-79
2022/09/10 11:48:37;;;;;;;2.50;0.87;;;22.90;99.90;;;;;;5023663;28;20974;-78
2022/09/10 11:51:12;;;;;;;1.30;0.80;;;23.20;99.90;;;;;;5023919;28;20570;-79
2022/09/10 11:53:40;;;;;;;1.00;0.90;;;23.30;99.90;;;;;;5022412;28;20554;-80
2022/09/10 11:56:29;;;;;;;3.00;1.00;;;23.50;99.90;;;;;;5024909;28;20468;-79
2022/09/10 11:59:10;;;;;;;0.90;0.77;;;23.80;99.90;;;;;;5027607;28;21046;-79
2022/09/10 12:01:53;;;;;;;2.20;0.70;;;23.50;99.90;;;;;;5038771;28;20546;-82
2022/09/10 12:04:43;;;;;;;1.50;0.67;;;22.70;99.90;;;;;;5023566;28;20979;-83
2022/09/10 12:07:25;;;;;;;1.37;1.20;;;22.90;99.90;;;;;;5023082;28;20501;-83
2022/09/10 12:10:06;;;;;;;1.00;0.70;;;23.00;99.90;;;;;;5027539;28;20456;-77
2022/09/10 12:12:42;;;;;;;3.60;1.10;;;23.10;99.90;;;;;;5029487;28;21013;-80
2022/09/10 12:15:18;;;;;;;3.00;1.50;;;23.50;99.90;;;;;;5027197;28;20459;-79
2022/09/10 12:17:50;;;;;;;1.63;0.90;;;23.40;99.90;;;;;;5031371;28;20462;-80
2022/09/10 12:20:25;;;;;;;2.40;0.80;;;23.20;99.90;;;;;;5026145;28;20570;-80
2022/09/10 12:22:55;;;;;;;0.82;0.60;;;23.30;99.90;;;;;;5021870;28;20496;-79
2022/09/10 12:25:27;;;;;;;2.63;0.70;;;23.10;99.90;;;;;;5023343;28;20256;-80
2022/09/10 12:28:04;;;;;;;0.90;0.70;;;22.80;99.90;;;;;;5025197;28;20513;-79
2022/09/10 12:31:01;;;;;;;1.33;0.70;;;22.40;99.90;;;;;;5026422;28;20507;-79
2022/09/10 12:34:06;;;;;;;1.60;0.70;;;22.40;99.90;;;;;;5028449;28;20455;-79
2022/09/10 12:37:13;;;;;;;1.97;1.37;;;22.60;99.90;;;;;;5001761;28;20536;-77
2022/09/10 12:39:42;;;;;;;1.83;1.13;;;22.60;99.90;;;;;;5023735;28;20565;-79
2022/09/10 12:42:33;;;;;;;6.47;3.27;;;22.90;99.90;;;;;;5024193;28;21206;-80
2022/09/10 12:45:01;;;;;;;3.27;1.00;;;23.20;99.90;;;;;;5025080;28;20845;-79
2022/09/10 12:47:51;;;;;;;1.73;0.80;;;23.40;99.90;;;;;;5027670;28;20451;-77
2022/09/10 12:50:31;;;;;;;2.10;0.60;;;23.70;99.90;;;;;;5024563;28;20789;-79
2022/09/10 12:53:36;;;;;;;1.17;0.93;;;23.30;99.90;;;;;;5024224;28;20912;-81
2022/09/10 12:56:38;;;;;;;2.80;1.63;;;23.00;99.90;;;;;;5027679;28;20455;-78
2022/09/10 12:59:24;;;;;;;1.20;0.80;;;23.20;99.90;;;;;;5018540;28;20450;-79
2022/09/10 13:01:54;;;;;;;2.60;0.90;;;23.30;99.90;;;;;;5022604;28;20221;-82
2022/09/10 13:04:28;;;;;;;1.13;0.73;;;23.40;99.90;;;;;;5034445;28;20460;-84
2022/09/10 13:06:59;;;;;;;1.40;0.70;;;23.50;99.90;;;;;;5032273;28;20920;-86
2022/09/10 13:09:32;;;;;;;2.30;0.60;;;22.90;99.90;;;;;;5035816;28;20489;-86
2022/09/10 13:12:05;;;;;;;4.10;0.90;;;22.30;99.90;;;;;;5037123;28;20502;-82
2022/09/10 13:14:38;;;;;;;1.23;0.70;;;22.70;99.90;;;;;;5033841;28;20475;-83
2022/09/10 13:17:28;;;;;;;1.63;0.70;;;22.50;99.90;;;;;;5034267;28;20991;-86